SBKP

Viracopos International Airport

Campinas, Brazil
TAF SBKP 261002Z 2612/2712 10006KT CAVOK TX29/2618Z TN18/2708Z BECMG 2613/2615 33007KT SCT040 PROB30 2617/2620 22005KT 7000 SHRA SCT030 FEW045TCU BECMG 2620/2622 15010KT CAVOK TEMPO 2710/2712 6000 RMK PGN
Issued Valid From Valid To
Apr-26 @ 10:02 UTC
(3 hours ago)
Apr-26 @ 12:00 UTC
(an hour ago)
Apr-27 @ 12:00 UTC
(in 23 hours)
Expired Click to View Apr-26 @ 12:00 to Apr-26 @ 13:00
TAF SBKP 261002Z 2612/2712 10006KT CAVOK TX29/2618Z TN18/2708Z
Wind Visibility Clouds
100° at 6 knots 10,000+ meters
  • No significant clouds
Becoming Apr-26 @ 13:00 to Apr-26 @ 20:00
BECMG 2613/2615 33007KT SCT040
Wind Visibility Clouds
330° at 7 knots 10,000+ meters
  • Scattered at 4,000' AGL
Probable  (Probability 30%) Apr-26 @ 17:00 to Apr-26 @ 20:00
PROB30 2617/2620 22005KT 7000 SHRA SCT030 FEW045TCU
Wind Visibility Clouds Conditions
220° at 5 knots 7,001 meters
  • Scattered at 3,000' AGL
  • Few at 4,500' AGL
  • Rain
Becoming Apr-26 @ 20:00 to Apr-27 @ 12:00
BECMG 2620/2622 15010KT CAVOK
Wind Visibility Clouds Conditions
150° at 10 knots 10,000+ meters
  • No significant clouds
Temporary Apr-27 @ 10:00 to Apr-27 @ 12:00
TEMPO 2710/2712 6000 RMK PGN
Visibility
6,003 meters
TAF SBKP 261002Z 2612/2712 10006KT CAVOK TX29/2618Z TN18/2708Z BECMG 2613/2615 33007KT SCT040 PROB30 2617/2620 22005KT 7000 SHRA SCT030 FEW045TCU BECMG 2620/2622 15010KT CAVOK TEMPO 2710/2712 6000 RMK PGN
Issued Apr-26 @ 10:02 UTC
(3 hours ago)
Valid From Apr-26 @ 12:00 UTC
(an hour ago)
Valid To Apr-27 @ 12:00 UTC
(in 23 hours)
Apr-26 @ 12:00 - Apr-26 @ 13:00
Wind Visibility
100° at 6 knots 10,000+ meters
Clouds
  • No significant clouds
Becoming Apr-26 @ 13:00 - Apr-26 @ 20:00
Wind Visibility
330° at 7 knots 10,000+ meters
Clouds
  • Scattered at 4,000' AGL
Probability 30% Probable Apr-26 @ 17:00 - Apr-26 @ 20:00
Wind Visibility
220° at 5 knots 7,001 meters
Clouds
  • Scattered at 3,000' AGL
  • Few at 4,500' AGL
Conditions
  • Rain
Becoming Apr-26 @ 20:00 - Apr-27 @ 12:00
Wind Visibility
150° at 10 knots 10,000+ meters
Clouds
  • No significant clouds
Conditions
Temporary Apr-27 @ 10:00 - Apr-27 @ 12:00